首页
METAR-TAF:

METAR-TAF

机场 :

阿巴斯港國際機場

阿巴斯港, 伊朗

纬度: 27-13N, 经度: 056-22E, 海拔: 10米

当前天气观测

该预报发布于35分钟前的03:30 UTC
风速4节,风向西北
温度 20°C
湿度 88%
气压 1019 hPa
能見度: 5000
少量云层高于3000英尺
轻雾

METAR: OIKB 220330Z 32004KT 5000 BR FEW030 20/18 Q1019 A3009

时间: 07:35 (04:05 UTC)

预报

该预报发布于4小时和55分钟前的23:10 UTC
预报有效从22日的 00点(UTC)到 23日的 06点(UTC)
风速4节,风向
能見度: 5000
散云层高于3000英尺
散云层高于10000英尺
短暂存在
从 23日的 01点(UTC)到 23日的 05点(UTC)
风速8节,风向
能見度: 3000
少量云层高于3000英尺, 积雨云.
散云层高于3500英尺
散云层高于10000英尺
轻雾
几率 40%
在之间 20和00点(UTC)
轻雾, 雨
成为
从 22日的 05点(UTC)到 22日的 07点(UTC)
能見度: 6000
少量云层高于3000英尺
成为
从 22日的 14点(UTC)到 22日的 16点(UTC)
能見度: 4000
短暂存在
从 22日的 22点(UTC)到 23日的 04点(UTC)
能見度: 2000
轻雾

TAF: OIKB 212310Z 2200/2306 17004KT 5000 HZ SCT030 SCT100 TEMPO 2301/2305 01008KT 3000 BR FEW030CB SCT035 SCT100 PROB40 2000 BR RA BECMG 2205/2207 6000 FEW030 BECMG 2214/2216 4000 HZ/BR TEMPO 2222/2304 2000 BR

超过4000个机场的气象观测和天气预报(METAR&TAF报告)。

可查询的气象台以黄色和红色小点在地图上表示。

将鼠标移到小点上方,可查看气象台名称。

然后点击查看天气观测和预报。

如需切换地图:点击带黑十字的绿色按钮放大地图;点击带横线的绿色按钮缩小地图;或者点击绿色箭头查看邻近地区的地图。


METAR-TAF: